PLI422 SPHY-SPJC
Flight info
| Callsign | PLI422 |
|---|---|
| Flight time | 0h 58m |
| Altitude | 38000 |
| Route | AND UT333 PALUK UM415 ASOXI |
| Aircraft | B721/M-SDFGHRWY/C |
Departure
| Time | 2026-05-07 01:57 |
|---|---|
| Airport | Andahuaylas Airport (SPHY) |
Arrival
| Time | 2026-05-07 02:55 |
|---|---|
| Airport | Jorge Chávez International Airport (SPJC) |
| Time | Latitude | Longitude | Altitude | Speed | Heading |
|---|---|---|---|---|---|
| 2026-05-07 01:44 | -13.71255 | -73.35263 | 11655 ft | 0 kts | 169° |
| 2026-05-07 01:52 | -13.71262 | -73.35267 | 11655 ft | 5 kts | 224° |
| 2026-05-07 01:53 | -13.71234 | -73.35305 | 11655 ft | 7 kts | 332° |
| 2026-05-07 01:53 | -13.71216 | -73.35336 | 11655 ft | 8 kts | 260° |
| 2026-05-07 01:53 | -13.71274 | -73.35391 | 11653 ft | 12 kts | 210° |
| 2026-05-07 01:53 | -13.71331 | -73.35428 | 11652 ft | 13 kts | 214° |
| 2026-05-07 01:54 | -13.71414 | -73.35479 | 11651 ft | 13 kts | 211° |
| 2026-05-07 01:54 | -13.71502 | -73.35537 | 11649 ft | 15 kts | 213° |
| 2026-05-07 01:54 | -13.71603 | -73.35603 | 11646 ft | 17 kts | 210° |
| 2026-05-07 01:54 | -13.71713 | -73.35667 | 11643 ft | 17 kts | 210° |
| 2026-05-07 01:55 | -13.71795 | -73.35743 | 11641 ft | 11 kts | 220° |
| 2026-05-07 01:55 | -13.71819 | -73.35737 | 11641 ft | 2 kts | 29° |
| 2026-05-07 01:55 | -13.71814 | -73.35735 | 11641 ft | 0 kts | 27° |
| 2026-05-07 01:56 | -13.71643 | -73.35626 | 11645 ft | 59 kts | 32° |
| 2026-05-07 01:56 | -13.71126 | -73.35299 | 11656 ft | 111 kts | 31° |
| 2026-05-07 01:56 | -13.70332 | -73.34782 | 11700 ft | 147 kts | 30° |
| 2026-05-07 01:57 | -13.69387 | -73.34224 | 11886 ft | 155 kts | 29° |
| 2026-05-07 01:57 | -13.68410 | -73.33663 | 12050 ft | 162 kts | 29° |
| 2026-05-07 01:57 | -13.67396 | -73.33045 | 12233 ft | 168 kts | 31° |
| 2026-05-07 01:57 | -13.66340 | -73.32388 | 12368 ft | 178 kts | 31° |
| 2026-05-07 01:58 | -13.65219 | -73.31689 | 12500 ft | 186 kts | 31° |
| 2026-05-07 01:58 | -13.64055 | -73.30963 | 12600 ft | 199 kts | 31° |
| 2026-05-07 01:58 | -13.62810 | -73.30186 | 12727 ft | 211 kts | 31° |
| 2026-05-07 01:58 | -13.61486 | -73.29361 | 12850 ft | 223 kts | 31° |
| 2026-05-07 01:59 | -13.60084 | -73.28487 | 12970 ft | 233 kts | 31° |
| 2026-05-07 01:59 | -13.58641 | -73.27588 | 13085 ft | 242 kts | 31° |
| 2026-05-07 01:59 | -13.57063 | -73.26829 | 13179 ft | 248 kts | 10° |
| 2026-05-07 01:59 | -13.55289 | -73.26608 | 13305 ft | 253 kts | 12° |
| 2026-05-07 02:00 | -13.53578 | -73.26019 | 13414 ft | 257 kts | 23° |
| 2026-05-07 02:00 | -13.51928 | -73.25159 | 13522 ft | 262 kts | 29° |
| 2026-05-07 02:00 | -13.50299 | -73.24202 | 13629 ft | 265 kts | 30° |
| 2026-05-07 02:00 | -13.48662 | -73.23212 | 13735 ft | 268 kts | 31° |
| 2026-05-07 02:01 | -13.47016 | -73.22193 | 13841 ft | 271 kts | 31° |
| 2026-05-07 02:01 | -13.45283 | -73.21103 | 13861 ft | 299 kts | 31° |
| 2026-05-07 02:01 | -13.43362 | -73.19884 | 13983 ft | 332 kts | 31° |
| 2026-05-07 02:01 | -13.41425 | -73.18372 | 14119 ft | 360 kts | 50° |
| 2026-05-07 02:02 | -13.40181 | -73.16000 | 14478 ft | 380 kts | 73° |
| 2026-05-07 02:02 | -13.39912 | -73.13196 | 14979 ft | 395 kts | 95° |
| 2026-05-07 02:02 | -13.40493 | -73.10301 | 15485 ft | 409 kts | 105° |
| 2026-05-07 02:02 | -13.41367 | -73.07367 | 15987 ft | 423 kts | 108° |
| 2026-05-07 02:03 | -13.42336 | -73.04388 | 16483 ft | 436 kts | 109° |
| 2026-05-07 02:03 | -13.43351 | -73.01327 | 16980 ft | 447 kts | 109° |
| 2026-05-07 02:03 | -13.44384 | -72.98225 | 17471 ft | 457 kts | 109° |
| 2026-05-07 02:03 | -13.45487 | -72.95063 | 17954 ft | 465 kts | 114° |
| 2026-05-07 02:04 | -13.47360 | -72.92240 | 18448 ft | 471 kts | 134° |
| 2026-05-07 02:04 | -13.50039 | -72.90146 | 18939 ft | 478 kts | 152° |
| 2026-05-07 02:04 | -13.53248 | -72.88979 | 19430 ft | 483 kts | 169° |
| 2026-05-07 02:04 | -13.56706 | -72.88579 | 19931 ft | 488 kts | 177° |
| 2026-05-07 02:05 | -13.60157 | -72.88670 | 20406 ft | 491 kts | 189° |
| 2026-05-07 02:05 | -13.63480 | -72.89840 | 20902 ft | 494 kts | 207° |
| 2026-05-07 02:05 | -13.66288 | -72.91938 | 21383 ft | 497 kts | 224° |
| 2026-05-07 02:05 | -13.68676 | -72.94577 | 21870 ft | 498 kts | 230° |
| 2026-05-07 02:06 | -13.70487 | -72.97737 | 22358 ft | 499 kts | 249° |
| 2026-05-07 02:06 | -13.71272 | -73.01279 | 22842 ft | 500 kts | 265° |
| 2026-05-07 02:06 | -13.71233 | -73.04924 | 23559 ft | 495 kts | 272° |
| 2026-05-07 02:06 | -13.71070 | -73.08524 | 24360 ft | 490 kts | 272° |
| 2026-05-07 02:07 | -13.70990 | -73.12098 | 25042 ft | 487 kts | 270° |
| 2026-05-07 02:07 | -13.71055 | -73.19222 | 26116 ft | 486 kts | 269° |
| 2026-05-07 02:07 | -13.71118 | -73.22806 | 26645 ft | 486 kts | 269° |
| 2026-05-07 02:08 | -13.71177 | -73.26344 | 27191 ft | 484 kts | 269° |
| 2026-05-07 02:08 | -13.71230 | -73.29878 | 27742 ft | 482 kts | 269° |
| 2026-05-07 02:08 | -13.71280 | -73.33363 | 28267 ft | 480 kts | 269° |
| 2026-05-07 02:08 | -13.71330 | -73.36888 | 28771 ft | 479 kts | 269° |
| 2026-05-07 02:09 | -13.71378 | -73.40398 | 29254 ft | 478 kts | 269° |
| 2026-05-07 02:09 | -13.71425 | -73.43851 | 29719 ft | 477 kts | 269° |
| 2026-05-07 02:09 | -13.71472 | -73.47346 | 30182 ft | 476 kts | 269° |
| 2026-05-07 02:09 | -13.71517 | -73.50796 | 30632 ft | 475 kts | 269° |
| 2026-05-07 02:10 | -13.71562 | -73.54247 | 31072 ft | 473 kts | 269° |
| 2026-05-07 02:10 | -13.71606 | -73.57710 | 31500 ft | 472 kts | 269° |
| 2026-05-07 02:10 | -13.71650 | -73.61124 | 31910 ft | 471 kts | 269° |
| 2026-05-07 02:10 | -13.71693 | -73.64568 | 32314 ft | 470 kts | 269° |
| 2026-05-07 02:11 | -13.71735 | -73.67920 | 32696 ft | 469 kts | 269° |
| 2026-05-07 02:11 | -13.71783 | -73.71298 | 33106 ft | 467 kts | 270° |
| 2026-05-07 02:11 | -13.71866 | -73.74678 | 33577 ft | 464 kts | 270° |
| 2026-05-07 02:11 | -13.71978 | -73.78065 | 34126 ft | 458 kts | 271° |
| 2026-05-07 02:12 | -13.72097 | -73.81364 | 34714 ft | 451 kts | 271° |
| 2026-05-07 02:12 | -13.72213 | -73.84616 | 35335 ft | 443 kts | 272° |
| 2026-05-07 02:12 | -13.72320 | -73.87826 | 35981 ft | 433 kts | 273° |
| 2026-05-07 02:12 | -13.72413 | -73.90913 | 36594 ft | 424 kts | 274° |
| 2026-05-07 02:13 | -13.72496 | -73.94007 | 37073 ft | 419 kts | 274° |
| 2026-05-07 02:13 | -13.72552 | -73.97040 | 37143 ft | 422 kts | 275° |
| 2026-05-07 02:13 | -13.72610 | -74.03270 | 37276 ft | 427 kts | 275° |
| 2026-05-07 02:14 | -13.72632 | -74.06368 | 37384 ft | 429 kts | 275° |
| 2026-05-07 02:14 | -13.72656 | -74.09531 | 37517 ft | 431 kts | 275° |
| 2026-05-07 02:14 | -13.72704 | -74.15837 | 37530 ft | 436 kts | 274° |
| 2026-05-07 02:15 | -13.72733 | -74.22286 | 37476 ft | 441 kts | 274° |
| 2026-05-07 02:15 | -13.72712 | -74.28752 | 37476 ft | 446 kts | 273° |
| 2026-05-07 02:16 | -13.72521 | -74.35277 | 37473 ft | 448 kts | 279° |
| 2026-05-07 02:16 | -13.70627 | -74.41490 | 37474 ft | 451 kts | 294° |
| 2026-05-07 02:17 | -13.67941 | -74.47505 | 37481 ft | 455 kts | 294° |
| 2026-05-07 02:17 | -13.65298 | -74.53577 | 37489 ft | 460 kts | 294° |
| 2026-05-07 02:18 | -13.62675 | -74.59729 | 37496 ft | 464 kts | 293° |
| 2026-05-07 02:18 | -13.60052 | -74.65876 | 37503 ft | 468 kts | 294° |
| 2026-05-07 02:19 | -13.57374 | -74.72138 | 37510 ft | 472 kts | 294° |
| 2026-05-07 02:19 | -13.54679 | -74.78434 | 37516 ft | 475 kts | 294° |
| 2026-05-07 02:20 | -13.51965 | -74.84771 | 37522 ft | 478 kts | 294° |
| 2026-05-07 02:20 | -13.49228 | -74.91157 | 37528 ft | 481 kts | 294° |
| 2026-05-07 02:21 | -13.46460 | -74.97617 | 37534 ft | 483 kts | 294° |
| 2026-05-07 02:21 | -13.43702 | -75.04064 | 37540 ft | 486 kts | 294° |
| 2026-05-07 02:22 | -13.40925 | -75.10555 | 37545 ft | 488 kts | 294° |
| 2026-05-07 02:22 | -13.38130 | -75.17078 | 37551 ft | 489 kts | 294° |
| 2026-05-07 02:23 | -13.35332 | -75.23603 | 37556 ft | 491 kts | 294° |
| 2026-05-07 02:23 | -13.32536 | -75.30119 | 37561 ft | 492 kts | 294° |
| 2026-05-07 02:24 | -13.29711 | -75.36698 | 37566 ft | 493 kts | 294° |
| 2026-05-07 02:24 | -13.26901 | -75.43237 | 37662 ft | 492 kts | 294° |
| 2026-05-07 02:25 | -13.24097 | -75.49756 | 37861 ft | 488 kts | 294° |
| 2026-05-07 02:25 | -13.21309 | -75.56230 | 37989 ft | 487 kts | 294° |
| 2026-05-07 02:26 | -13.18500 | -75.62750 | 37999 ft | 488 kts | 294° |
| 2026-05-07 02:26 | -13.15868 | -75.68847 | 37993 ft | 490 kts | 294° |
| 2026-05-07 02:27 | -13.13046 | -75.75352 | 37993 ft | 491 kts | 294° |
| 2026-05-07 02:27 | -13.10211 | -75.81880 | 37993 ft | 491 kts | 294° |
| 2026-05-07 02:28 | -13.07374 | -75.88409 | 37993 ft | 492 kts | 294° |
| 2026-05-07 02:28 | -13.04534 | -75.94940 | 37993 ft | 493 kts | 294° |
| 2026-05-07 02:29 | -13.01660 | -76.01544 | 37993 ft | 493 kts | 294° |
| 2026-05-07 02:29 | -12.98788 | -76.08137 | 37993 ft | 494 kts | 294° |
| 2026-05-07 02:30 | -12.95936 | -76.14682 | 37992 ft | 494 kts | 294° |
| 2026-05-07 02:30 | -12.93100 | -76.21182 | 37720 ft | 483 kts | 294° |
| 2026-05-07 02:31 | -12.91704 | -76.24380 | 37539 ft | 478 kts | 294° |
| 2026-05-07 02:31 | -12.90333 | -76.27520 | 37318 ft | 473 kts | 294° |
| 2026-05-07 02:31 | -12.88967 | -76.30646 | 37087 ft | 468 kts | 294° |
| 2026-05-07 02:31 | -12.87622 | -76.33724 | 36835 ft | 463 kts | 294° |
| 2026-05-07 02:32 | -12.86286 | -76.36779 | 36580 ft | 459 kts | 294° |
| 2026-05-07 02:32 | -12.84964 | -76.39803 | 36326 ft | 455 kts | 294° |
| 2026-05-07 02:32 | -12.83650 | -76.42806 | 36071 ft | 452 kts | 294° |
| 2026-05-07 02:32 | -12.82336 | -76.45808 | 35813 ft | 448 kts | 294° |
| 2026-05-07 02:33 | -12.81057 | -76.48731 | 35561 ft | 445 kts | 294° |
| 2026-05-07 02:33 | -12.79782 | -76.51640 | 35309 ft | 442 kts | 294° |
| 2026-05-07 02:33 | -12.78510 | -76.54544 | 35039 ft | 438 kts | 294° |
| 2026-05-07 02:33 | -12.77249 | -76.57420 | 34650 ft | 433 kts | 294° |
| 2026-05-07 02:34 | -12.76005 | -76.60229 | 34179 ft | 431 kts | 295° |
| 2026-05-07 02:34 | -12.74631 | -76.62993 | 33698 ft | 429 kts | 298° |
| 2026-05-07 02:34 | -12.73198 | -76.65704 | 33200 ft | 427 kts | 298° |
| 2026-05-07 02:34 | -12.71748 | -76.68407 | 32694 ft | 426 kts | 299° |
| 2026-05-07 02:35 | -12.70303 | -76.71105 | 32166 ft | 419 kts | 298° |
| 2026-05-07 02:35 | -12.68945 | -76.73650 | 31568 ft | 402 kts | 298° |
| 2026-05-07 02:35 | -12.67606 | -76.76168 | 30866 ft | 388 kts | 298° |
| 2026-05-07 02:35 | -12.66332 | -76.78566 | 30135 ft | 377 kts | 298° |
| 2026-05-07 02:36 | -12.65074 | -76.80931 | 29378 ft | 368 kts | 298° |
| 2026-05-07 02:36 | -12.63849 | -76.83236 | 28549 ft | 363 kts | 298° |
| 2026-05-07 02:36 | -12.62634 | -76.85521 | 27635 ft | 360 kts | 298° |
| 2026-05-07 02:36 | -12.61438 | -76.87769 | 26731 ft | 357 kts | 298° |
| 2026-05-07 02:37 | -12.60235 | -76.90029 | 25814 ft | 354 kts | 298° |
| 2026-05-07 02:37 | -12.59052 | -76.92251 | 24906 ft | 352 kts | 299° |
| 2026-05-07 02:37 | -12.57581 | -76.94239 | 23901 ft | 351 kts | 317° |
| 2026-05-07 02:37 | -12.55673 | -76.95789 | 22851 ft | 352 kts | 326° |
| 2026-05-07 02:38 | -12.53561 | -76.97096 | 21789 ft | 353 kts | 331° |
| 2026-05-07 02:38 | -12.51378 | -76.98276 | 20729 ft | 353 kts | 333° |
| 2026-05-07 02:38 | -12.49179 | -76.99397 | 19673 ft | 352 kts | 334° |
| 2026-05-07 02:38 | -12.46954 | -77.00510 | 18605 ft | 351 kts | 334° |
| 2026-05-07 02:39 | -12.44775 | -77.01593 | 17558 ft | 350 kts | 334° |
| 2026-05-07 02:39 | -12.42586 | -77.02680 | 16502 ft | 349 kts | 334° |
| 2026-05-07 02:39 | -12.40397 | -77.03767 | 15439 ft | 345 kts | 334° |
| 2026-05-07 02:39 | -12.38241 | -77.04839 | 14377 ft | 341 kts | 334° |
| 2026-05-07 02:40 | -12.36090 | -77.05907 | 13309 ft | 337 kts | 334° |
| 2026-05-07 02:40 | -12.33963 | -77.06963 | 12241 ft | 333 kts | 334° |
| 2026-05-07 02:40 | -12.31891 | -77.07993 | 11224 ft | 329 kts | 334° |
| 2026-05-07 02:40 | -12.29838 | -77.09016 | 10480 ft | 316 kts | 334° |
| 2026-05-07 02:41 | -12.27889 | -77.09990 | 9942 ft | 297 kts | 334° |
| 2026-05-07 02:41 | -12.26089 | -77.10892 | 9865 ft | 265 kts | 334° |
| 2026-05-07 02:41 | -12.24500 | -77.11686 | 10300 ft | 238 kts | 334° |
| 2026-05-07 02:41 | -12.23047 | -77.12408 | 10598 ft | 220 kts | 334° |
| 2026-05-07 02:42 | -12.21646 | -77.13103 | 10408 ft | 233 kts | 334° |
| 2026-05-07 02:42 | -12.20034 | -77.13905 | 9684 ft | 271 kts | 334° |
| 2026-05-07 02:42 | -12.18167 | -77.14835 | 8610 ft | 316 kts | 334° |
| 2026-05-07 02:42 | -12.16103 | -77.15869 | 7974 ft | 338 kts | 334° |
| 2026-05-07 02:43 | -12.14216 | -77.16813 | 7604 ft | 338 kts | 334° |
| 2026-05-07 02:43 | -12.12071 | -77.17893 | 7435 ft | 328 kts | 334° |
| 2026-05-07 02:43 | -12.10097 | -77.18975 | 8085 ft | 292 kts | 330° |
| 2026-05-07 02:43 | -12.08350 | -77.20023 | 8044 ft | 287 kts | 330° |
| 2026-05-07 02:44 | -12.06559 | -77.21035 | 7707 ft | 288 kts | 332° |
| 2026-05-07 02:44 | -12.04854 | -77.22025 | 7990 ft | 267 kts | 330° |
| 2026-05-07 02:44 | -12.03252 | -77.22956 | 7796 ft | 267 kts | 334° |
| 2026-05-07 02:44 | -12.01475 | -77.23803 | 7151 ft | 281 kts | 336° |
| 2026-05-07 02:45 | -11.99644 | -77.24654 | 6536 ft | 293 kts | 336° |
| 2026-05-07 02:45 | -11.97778 | -77.25567 | 6182 ft | 284 kts | 335° |
| 2026-05-07 02:45 | -11.96030 | -77.26417 | 5945 ft | 262 kts | 336° |
| 2026-05-07 02:45 | -11.94367 | -77.27214 | 5199 ft | 264 kts | 336° |
| 2026-05-07 02:46 | -11.92629 | -77.28037 | 4228 ft | 270 kts | 336° |
| 2026-05-07 02:46 | -11.90977 | -77.28823 | 4026 ft | 248 kts | 335° |
| 2026-05-07 02:46 | -11.89420 | -77.29587 | 3921 ft | 227 kts | 335° |
| 2026-05-07 02:46 | -11.88094 | -77.30269 | 3841 ft | 204 kts | 334° |
| 2026-05-07 02:47 | -11.86836 | -77.30965 | 3175 ft | 207 kts | 331° |
| 2026-05-07 02:47 | -11.85584 | -77.31701 | 2704 ft | 198 kts | 337° |
| 2026-05-07 02:47 | -11.84306 | -77.31728 | 2516 ft | 180 kts | 28° |
| 2026-05-07 02:47 | -11.83417 | -77.30819 | 2238 ft | 176 kts | 56° |
| 2026-05-07 02:48 | -11.82718 | -77.29758 | 1933 ft | 180 kts | 60° |
| 2026-05-07 02:48 | -11.82081 | -77.28688 | 1953 ft | 169 kts | 63° |
| 2026-05-07 02:48 | -11.81534 | -77.27610 | 1965 ft | 165 kts | 67° |
| 2026-05-07 02:48 | -11.81028 | -77.26540 | 2006 ft | 167 kts | 67° |
| 2026-05-07 02:49 | -11.80562 | -77.25435 | 2070 ft | 163 kts | 80° |
| 2026-05-07 02:49 | -11.80901 | -77.24296 | 1538 ft | 187 kts | 135° |
| 2026-05-07 02:49 | -11.81794 | -77.23444 | 1925 ft | 164 kts | 139° |
| 2026-05-07 02:49 | -11.82703 | -77.22670 | 1972 ft | 175 kts | 141° |
| 2026-05-07 02:50 | -11.83634 | -77.21896 | 2096 ft | 161 kts | 141° |
| 2026-05-07 02:50 | -11.84546 | -77.21224 | 2015 ft | 161 kts | 154° |
| 2026-05-07 02:50 | -11.85587 | -77.20818 | 2028 ft | 152 kts | 160° |
| 2026-05-07 02:50 | -11.86608 | -77.20473 | 1972 ft | 153 kts | 160° |
| 2026-05-07 02:51 | -11.87614 | -77.20046 | 1879 ft | 155 kts | 155° |
| 2026-05-07 02:51 | -11.88610 | -77.19580 | 1838 ft | 153 kts | 154° |
| 2026-05-07 02:51 | -11.89519 | -77.19044 | 1812 ft | 149 kts | 148° |
| 2026-05-07 02:51 | -11.90452 | -77.18550 | 1743 ft | 146 kts | 153° |
| 2026-05-07 02:52 | -11.91367 | -77.18114 | 1691 ft | 144 kts | 155° |
| 2026-05-07 02:52 | -11.92289 | -77.17628 | 1657 ft | 145 kts | 150° |
| 2026-05-07 02:52 | -11.93135 | -77.17148 | 1731 ft | 134 kts | 149° |
| 2026-05-07 02:52 | -11.93968 | -77.16694 | 1618 ft | 130 kts | 152° |
| 2026-05-07 02:53 | -11.94780 | -77.16260 | 1439 ft | 131 kts | 153° |
| 2026-05-07 02:53 | -11.95610 | -77.15846 | 1314 ft | 130 kts | 156° |
| 2026-05-07 02:53 | -11.96441 | -77.15473 | 1229 ft | 130 kts | 155° |
| 2026-05-07 02:53 | -11.97286 | -77.15054 | 1096 ft | 137 kts | 154° |
| 2026-05-07 02:54 | -11.98186 | -77.14610 | 834 ft | 143 kts | 153° |
| 2026-05-07 02:54 | -11.98982 | -77.14210 | 750 ft | 115 kts | 154° |
| 2026-05-07 02:54 | -11.99727 | -77.13840 | 353 ft | 121 kts | 154° |
| 2026-05-07 02:54 | -12.00561 | -77.13429 | 214 ft | 132 kts | 156° |
| 2026-05-07 02:55 | -12.01370 | -77.13028 | 52 ft | 118 kts | 155° |
| 2026-05-07 02:55 | -12.02010 | -77.12698 | 44 ft | 75 kts | 144° |
| 2026-05-07 02:55 | -12.02303 | -77.12524 | 49 ft | 30 kts | 169° |
| 2026-05-07 02:55 | -12.02413 | -77.12499 | 54 ft | 10 kts | 169° |
| 2026-05-07 02:56 | -12.02484 | -77.12479 | 57 ft | 15 kts | 160° |
| 2026-05-07 02:56 | -12.02651 | -77.12380 | 63 ft | 29 kts | 144° |
| 2026-05-07 02:56 | -12.02739 | -77.12279 | 65 ft | 11 kts | 124° |
| 2026-05-07 02:56 | -12.02756 | -77.12211 | 68 ft | 7 kts | 42° |
| 2026-05-07 02:57 | -12.02699 | -77.12199 | 68 ft | 10 kts | 346° |
| 2026-05-07 02:57 | -12.02639 | -77.12227 | 67 ft | 6 kts | 336° |
| 2026-05-07 02:57 | -12.02603 | -77.12242 | 67 ft | 7 kts | 334° |
| 2026-05-07 02:57 | -12.02493 | -77.12299 | 66 ft | 20 kts | 324° |
| 2026-05-07 02:58 | -12.02439 | -77.12338 | 66 ft | 5 kts | 338° |
| 2026-05-07 02:58 | -12.02368 | -77.12363 | 65 ft | 16 kts | 335° |
| 2026-05-07 02:58 | -12.02237 | -77.12418 | 64 ft | 19 kts | 356° |
| 2026-05-07 02:58 | -12.02183 | -77.12356 | 64 ft | 12 kts | 64° |
| 2026-05-07 02:59 | -12.02148 | -77.12280 | 65 ft | 10 kts | 60° |
| 2026-05-07 02:59 | -12.02114 | -77.12213 | 67 ft | 10 kts | 65° |
| 2026-05-07 02:59 | -12.02088 | -77.12166 | 69 ft | 5 kts | 64° |
| 2026-05-07 02:59 | -12.02031 | -77.12038 | 73 ft | 24 kts | 67° |
| 2026-05-07 03:00 | -12.01967 | -77.11901 | 77 ft | 18 kts | 65° |
| 2026-05-07 03:00 | -12.01916 | -77.11790 | 77 ft | 15 kts | 73° |
| 2026-05-07 03:00 | -12.01976 | -77.11710 | 77 ft | 15 kts | 154° |
| 2026-05-07 03:00 | -12.02081 | -77.11660 | 77 ft | 17 kts | 159° |
| 2026-05-07 03:01 | -12.02172 | -77.11611 | 77 ft | 12 kts | 158° |
| 2026-05-07 03:01 | -12.02248 | -77.11577 | 78 ft | 11 kts | 152° |
| 2026-05-07 03:01 | -12.02306 | -77.11547 | 82 ft | 5 kts | 154° |
| 2026-05-07 03:01 | -12.02361 | -77.11522 | 87 ft | 26 kts | 158° |
| 2026-05-07 03:02 | -12.02543 | -77.11431 | 90 ft | 26 kts | 154° |
| 2026-05-07 03:02 | -12.02704 | -77.11352 | 94 ft | 24 kts | 154° |
| 2026-05-07 03:02 | -12.02827 | -77.11299 | 97 ft | 16 kts | 184° |
| 2026-05-07 03:02 | -12.02931 | -77.11316 | 97 ft | 15 kts | 165° |
| 2026-05-07 03:03 | -12.03027 | -77.11271 | 97 ft | 15 kts | 152° |
| 2026-05-07 03:03 | -12.03091 | -77.11238 | 97 ft | 9 kts | 152° |
| 2026-05-07 03:03 | -12.03142 | -77.11213 | 97 ft | 3 kts | 172° |
| 2026-05-07 03:03 | -12.03154 | -77.11226 | 97 ft | 1 kts | 239° |
| 2026-05-07 03:04 | -12.03159 | -77.11235 | 97 ft | 0 kts | 242° |
| 2026-05-07 03:04 | -12.03171 | -77.11259 | 97 ft | 5 kts | 243° |
| 2026-05-07 03:04 | -12.03173 | -77.11263 | 97 ft | 0 kts | 243° |